createdAt,value
2019-05-09T00:02:27.806Z,96384.68
2019-05-09T00:04:57.192Z,96384.04
2019-05-09T00:07:26.598Z,96391.62
2019-05-09T00:09:56.954Z,96379.71
2019-05-09T00:12:26.342Z,96375.19
2019-05-09T00:14:55.738Z,96378.30
2019-05-09T00:17:25.118Z,96369.84
2019-05-09T00:19:56.153Z,96370.58
2019-05-09T00:22:25.545Z,96362.77
2019-05-09T00:24:54.936Z,96358.55
2019-05-09T00:30:06.714Z,96346.19
2019-05-09T00:32:37.746Z,96342.22
2019-05-09T00:35:14.136Z,96347.80
2019-05-09T00:37:54.007Z,96346.55
2019-05-09T00:40:24.435Z,96347.28
2019-05-09T00:42:54.598Z,96347.91
2019-05-09T00:45:25.977Z,96352.92
2019-05-09T00:47:55.370Z,96337.42
2019-05-09T00:50:24.767Z,96356.58
2019-05-09T00:52:54.160Z,96340.11
2019-05-09T00:55:24.626Z,96349.12
2019-05-09T00:57:54.071Z,96352.05
2019-05-09T01:00:24.364Z,96358.20
2019-05-09T01:02:54.265Z,96363.76
2019-05-09T01:05:23.985Z,96363.76
2019-05-09T01:07:53.891Z,96357.71
2019-05-09T01:10:23.813Z,96342.47
2019-05-09T01:12:54.260Z,96345.50
2019-05-09T01:15:24.411Z,96353.31
2019-05-09T01:17:53.874Z,96354.50
2019-05-09T01:20:24.170Z,96344.69
2019-05-09T01:22:54.198Z,96343.31
2019-05-09T01:25:24.145Z,96336.73
2019-05-09T01:27:53.980Z,96345.83
2019-05-09T01:30:24.293Z,96344.66
2019-05-09T01:32:55.436Z,96346.66
2019-05-09T01:35:24.824Z,96338.39
2019-05-09T01:37:54.206Z,96338.84
2019-05-09T01:40:23.935Z,96340.69
2019-05-09T01:42:53.874Z,96335.60
2019-05-09T01:45:23.753Z,96339.36
2019-05-09T01:47:54.333Z,96325.77
2019-05-09T01:50:23.723Z,96326.92
2019-05-09T01:52:53.411Z,96329.28
2019-05-09T01:55:24.695Z,96327.05
2019-05-09T01:57:54.086Z,96335.17
2019-05-09T02:00:23.981Z,96328.79
2019-05-09T02:02:54.181Z,96332.94
2019-05-09T02:05:24.224Z,96337.70
2019-05-09T02:07:54.352Z,96348.48
2019-05-09T02:10:24.362Z,96352.46
2019-05-09T02:12:54.824Z,96344.74
2019-05-09T02:15:43.448Z,96342.33
2019-05-09T02:18:29.205Z,96336.92
2019-05-09T02:20:58.590Z,96332.36
2019-05-09T02:23:27.977Z,96325.09
2019-05-09T02:25:57.435Z,96327.13
2019-05-09T02:28:26.831Z,96334.03
2019-05-09T02:30:56.342Z,96328.14
2019-05-09T02:33:26.442Z,96334.17
2019-05-09T02:36:01.453Z,96330.56
2019-05-09T02:38:28.781Z,96326.28
2019-05-09T02:40:59.553Z,96320.33
2019-05-09T02:43:29.370Z,96316.16
2019-05-09T02:46:00.411Z,96330.84
2019-05-09T02:48:29.811Z,96336.81
2019-05-09T02:51:00.244Z,96335.15
2019-05-09T02:53:30.027Z,96338.91
2019-05-09T02:55:59.426Z,96342.91
2019-05-09T02:58:30.452Z,96335.00
2019-05-09T03:01:01.505Z,96340.47
2019-05-09T03:03:35.161Z,96332.69
2019-05-09T03:06:04.552Z,96330.74
2019-05-09T03:08:33.922Z,96326.00
2019-05-09T03:11:03.345Z,96324.81
2019-05-09T03:13:32.716Z,96320.87
2019-05-09T03:16:03.800Z,96319.28
2019-05-09T03:18:33.209Z,96333.14
2019-05-09T03:21:08.975Z,96330.45
2019-05-09T03:23:38.855Z,96327.06
2019-05-09T03:26:10.122Z,96331.11
2019-05-09T03:28:43.844Z,96323.92
2019-05-09T03:31:14.861Z,96322.86
2019-05-09T03:33:44.250Z,96327.59
2019-05-09T03:36:13.628Z,96330.04
2019-05-09T03:38:43.261Z,96324.88
2019-05-09T03:41:13.478Z,96320.50
2019-05-09T03:43:42.867Z,96330.11
2019-05-09T03:46:22.745Z,96329.16
2019-05-09T03:49:00.596Z,96327.75
2019-05-09T03:51:30.259Z,96329.52
2019-05-09T03:53:59.656Z,96333.77
2019-05-09T03:56:30.678Z,96330.09
2019-05-09T03:59:00.063Z,96325.48
2019-05-09T04:01:29.598Z,96331.41
2019-05-09T04:03:58.978Z,96335.63
2019-05-09T04:06:28.424Z,96330.82
2019-05-09T04:08:58.472Z,96350.25
2019-05-09T04:11:28.120Z,96346.34
2019-05-09T04:13:59.607Z,96346.16
2019-05-09T04:16:29.010Z,96341.17
2019-05-09T04:18:58.404Z,96342.73
2019-05-09T04:21:28.122Z,96347.51
2019-05-09T04:23:58.423Z,96357.75
2019-05-09T04:26:29.651Z,96362.50
2019-05-09T04:28:59.046Z,96353.68
2019-05-09T04:31:28.502Z,96367.27
2019-05-09T04:33:57.903Z,96367.77
2019-05-09T04:36:39.568Z,96373.01
2019-05-09T04:39:12.601Z,96370.56
2019-05-09T04:41:42.143Z,96366.52
2019-05-09T04:44:28.536Z,96368.66
2019-05-09T04:47:00.098Z,96371.67
2019-05-09T04:49:29.960Z,96368.73
2019-05-09T04:52:00.166Z,96368.73
2019-05-09T04:54:29.516Z,96361.21
2019-05-09T04:56:58.900Z,96367.09
2019-05-09T04:59:28.589Z,96370.95
2019-05-09T05:02:02.536Z,96373.48
2019-05-09T05:04:31.920Z,96378.70
2019-05-09T05:07:01.329Z,96380.78
2019-05-09T05:09:30.710Z,96378.89
2019-05-09T05:12:00.085Z,96379.70
2019-05-09T05:14:30.044Z,96384.32
2019-05-09T05:17:07.427Z,96386.00
2019-05-09T05:19:31.668Z,96385.25
2019-05-09T05:22:03.077Z,96387.09
2019-05-09T05:24:38.189Z,96389.20
2019-05-09T05:27:08.385Z,96387.14
2019-05-09T05:29:38.472Z,96389.19
2019-05-09T05:32:09.546Z,96389.70
2019-05-09T05:34:40.556Z,96392.09
2019-05-09T05:37:10.301Z,96395.56
2019-05-09T05:39:39.681Z,96394.84
2019-05-09T05:42:09.065Z,96387.93
2019-05-09T05:44:38.709Z,96386.09
2019-05-09T05:47:13.422Z,96387.81
2019-05-09T05:49:42.791Z,96396.24
2019-05-09T05:52:12.172Z,96402.39
2019-05-09T05:54:42.081Z,96395.53
2019-05-09T05:57:11.791Z,96400.53
2019-05-09T05:59:41.657Z,96401.51
2019-05-09T06:02:10.984Z,96407.59
2019-05-09T06:04:40.379Z,96416.46
2019-05-09T06:07:09.758Z,96415.20
2019-05-09T06:09:39.133Z,96414.53
2019-05-09T06:12:08.606Z,96415.75
2019-05-09T06:14:38.099Z,96415.75
2019-05-09T06:17:08.230Z,96411.17
2019-05-09T06:19:38.198Z,96412.34
2019-05-09T06:22:08.436Z,96423.90
2019-05-09T06:24:38.693Z,96422.47
2019-05-09T06:27:10.378Z,96420.20
2019-05-09T06:29:39.514Z,96428.36
2019-05-09T06:32:08.887Z,96431.09
2019-05-09T06:34:41.821Z,96431.78
2019-05-09T06:37:09.445Z,96430.53
2019-05-09T06:39:38.874Z,96428.47
2019-05-09T06:42:09.217Z,96427.17
2019-05-09T06:44:58.418Z,96417.95
2019-05-09T06:47:48.670Z,96420.70
2019-05-09T06:50:19.309Z,96426.87
2019-05-09T06:52:48.683Z,96422.27
2019-05-09T06:55:18.069Z,96430.17
2019-05-09T06:57:48.863Z,96430.50
2019-05-09T07:00:23.097Z,96441.09
2019-05-09T07:03:00.565Z,96435.41
2019-05-09T07:05:29.897Z,96436.36
2019-05-09T07:08:03.648Z,96446.35
2019-05-09T07:10:37.716Z,96441.30
2019-05-09T07:13:07.896Z,96433.28
2019-05-09T07:15:37.685Z,96431.63
2019-05-09T07:18:08.095Z,96429.14
2019-05-09T07:20:37.959Z,96445.64
2019-05-09T07:23:09.174Z,96444.98
2019-05-09T07:25:41.187Z,96439.69
2019-05-09T07:28:10.570Z,96447.78
2019-05-09T07:30:41.669Z,96447.41
2019-05-09T07:33:15.409Z,96453.41
2019-05-09T07:35:44.801Z,96460.27
2019-05-09T07:38:14.199Z,96463.96
2019-05-09T07:40:43.564Z,96465.52
2019-05-09T07:43:12.961Z,96466.31
2019-05-09T07:45:43.983Z,96468.74
2019-05-09T07:48:13.372Z,96463.34
2019-05-09T07:50:42.760Z,96463.41
2019-05-09T07:53:12.158Z,96465.37
2019-05-09T07:55:41.542Z,96469.63
2019-05-09T07:58:14.252Z,96465.00
2019-05-09T08:00:42.027Z,96467.66
2019-05-09T08:03:13.228Z,96462.67
2019-05-09T08:05:42.745Z,96472.13
2019-05-09T08:08:18.621Z,96463.38
2019-05-09T08:10:48.104Z,96464.22
2019-05-09T08:13:18.175Z,96463.64
2019-05-09T08:15:48.565Z,96464.55
2019-05-09T08:18:17.947Z,96472.81
2019-05-09T08:20:47.962Z,96477.60
2019-05-09T08:23:18.355Z,96485.78
2019-05-09T08:25:48.527Z,96493.55
2019-05-09T08:28:20.143Z,96486.45
2019-05-09T08:30:49.097Z,96496.02
2019-05-09T08:33:19.543Z,96488.59
2019-05-09T08:35:52.530Z,96485.38
2019-05-09T08:38:20.096Z,96496.05
2019-05-09T08:40:51.130Z,96489.38
2019-05-09T08:43:20.519Z,96477.13
2019-05-09T08:45:49.959Z,96471.89
2019-05-09T08:48:19.362Z,96466.02
2019-05-09T08:50:50.413Z,96466.11
2019-05-09T08:53:19.849Z,96464.20
2019-05-09T08:55:49.192Z,96464.50
2019-05-09T08:58:19.855Z,96468.37
2019-05-09T09:00:49.395Z,96472.54
2019-05-09T09:03:18.860Z,96470.27
2019-05-09T09:05:48.684Z,96476.03
2019-05-09T09:08:18.563Z,96477.94
2019-05-09T09:10:48.800Z,96467.96
2019-05-09T09:13:18.611Z,96474.02
2019-05-09T09:16:05.179Z,96476.17
2019-05-09T09:18:19.128Z,96475.73
2019-05-09T09:20:48.773Z,96481.80
2019-05-09T09:23:18.324Z,96489.28
2019-05-09T09:25:48.716Z,96488.25
2019-05-09T09:28:18.480Z,96483.28
2019-05-09T09:30:48.552Z,96484.72
2019-05-09T09:33:18.123Z,96484.91
2019-05-09T09:35:48.950Z,96488.31
2019-05-09T09:38:18.608Z,96488.31
2019-05-09T09:40:48.067Z,96487.92
2019-05-09T09:43:17.805Z,96488.39
2019-05-09T09:45:48.037Z,96486.95
2019-05-09T09:48:18.419Z,96490.27
2019-05-09T09:50:51.392Z,96490.39
2019-05-09T09:53:18.962Z,96490.25
2019-05-09T09:55:48.412Z,96491.38
2019-05-09T09:58:19.029Z,96494.92
2019-05-09T10:01:08.817Z,96488.77
2019-05-09T10:03:37.323Z,96490.95
2019-05-09T10:06:06.691Z,96495.50
2019-05-09T10:08:39.582Z,96494.94
2019-05-09T10:11:08.396Z,96498.19
2019-05-09T10:13:37.781Z,96494.73
2019-05-09T10:16:26.570Z,96491.75
2019-05-09T10:18:50.285Z,96496.52
2019-05-09T10:21:24.196Z,96496.41
2019-05-09T10:23:53.724Z,96500.61
2019-05-09T10:26:23.116Z,96502.58
2019-05-09T10:28:52.318Z,96502.58
2019-05-09T10:31:21.708Z,96499.94
2019-05-09T10:33:51.520Z,96502.62
2019-05-09T10:36:20.880Z,96496.53
2019-05-09T10:38:50.273Z,96493.38
2019-05-09T10:41:19.671Z,96493.16
2019-05-09T10:43:57.895Z,96492.63
2019-05-09T10:46:52.029Z,96494.67
2019-05-09T10:49:09.562Z,96502.30
2019-05-09T10:51:39.927Z,96494.60
2019-05-09T10:54:09.376Z,96499.05
2019-05-09T10:56:38.767Z,96493.41
2019-05-09T10:59:08.163Z,96504.38
2019-05-09T11:01:38.329Z,96499.17
2019-05-09T11:04:08.423Z,96492.53
2019-05-09T11:06:39.193Z,96495.86
2019-05-09T11:09:09.920Z,96490.48
2019-05-09T11:11:39.448Z,96495.28
2019-05-09T11:14:08.962Z,96494.13
2019-05-09T11:16:45.889Z,96492.77
2019-05-09T11:19:09.425Z,96491.69
2019-05-09T11:21:39.359Z,96473.48
2019-05-09T11:24:08.963Z,96478.66
2019-05-09T11:26:39.909Z,96484.02
2019-05-09T11:29:09.634Z,96483.41
2019-05-09T11:31:39.029Z,96485.50
2019-05-09T11:34:09.101Z,96483.02
2019-05-09T11:36:38.631Z,96482.02
2019-05-09T11:39:10.846Z,96481.48
2019-05-09T11:41:40.050Z,96480.72
2019-05-09T11:44:09.498Z,96486.09
2019-05-09T11:46:38.928Z,96478.66
2019-05-09T11:49:08.699Z,96478.80
2019-05-09T11:51:38.160Z,96480.98
2019-05-09T11:54:09.194Z,96475.58
2019-05-09T11:56:38.945Z,96475.77
2019-05-09T11:59:08.258Z,96475.35
2019-05-09T12:01:39.782Z,96472.55
2019-05-09T12:04:09.000Z,96468.27
2019-05-09T12:06:38.574Z,96469.17
2019-05-09T12:09:09.193Z,96469.52
2019-05-09T12:11:43.579Z,96463.98
2019-05-09T12:14:09.833Z,96465.93
2019-05-09T12:16:39.247Z,96464.63
2019-05-09T12:19:08.637Z,96468.59
2019-05-09T12:21:47.120Z,96471.44
2019-05-09T12:24:09.263Z,96473.88
2019-05-09T12:26:39.201Z,96480.05
2019-05-09T12:29:08.946Z,96484.39
2019-05-09T12:31:39.358Z,96486.17
2019-05-09T12:34:09.457Z,96482.91
2019-05-09T12:36:39.813Z,96483.23
2019-05-09T12:39:09.523Z,96487.87
2019-05-09T12:41:38.906Z,96491.34
2019-05-09T12:44:09.002Z,96490.55
2019-05-09T12:46:39.473Z,96489.94
2019-05-09T12:49:09.222Z,96489.76
2019-05-09T12:51:38.640Z,96485.13
2019-05-09T12:54:08.741Z,96484.98
2019-05-09T12:56:38.690Z,96473.63
2019-05-09T12:59:08.808Z,96470.03
2019-05-09T13:01:41.122Z,96473.75
2019-05-09T13:04:10.453Z,96472.15
2019-05-09T13:06:39.828Z,96468.21
2019-05-09T13:09:09.217Z,96471.48
2019-05-09T13:11:39.286Z,96471.61
2019-05-09T13:14:10.068Z,96476.04
2019-05-09T13:16:52.364Z,96469.84
2019-05-09T13:19:19.658Z,96474.50
2019-05-09T13:21:49.042Z,96472.09
2019-05-09T13:24:19.605Z,96480.42
2019-05-09T13:26:50.441Z,96484.52
2019-05-09T13:29:19.828Z,96476.64
2019-05-09T13:31:49.206Z,96482.95
2019-05-09T13:34:19.042Z,96479.31
2019-05-09T13:36:49.054Z,96480.98
2019-05-09T13:39:18.503Z,96486.13
2019-05-09T13:41:47.882Z,96491.06
2019-05-09T13:44:18.053Z,96492.03
2019-05-09T13:46:48.903Z,96489.20
2019-05-09T13:49:19.438Z,96492.78
2019-05-09T13:51:58.701Z,96491.50
2019-05-09T13:54:20.158Z,96497.25
2019-05-09T13:56:56.602Z,96495.58
2019-05-09T13:59:20.732Z,96500.55
2019-05-09T14:01:50.280Z,96497.58
2019-05-09T14:04:19.745Z,96497.11
2019-05-09T14:06:49.125Z,96486.95
2019-05-09T14:09:19.884Z,96493.78
2019-05-09T14:11:49.600Z,96492.22
2019-05-09T14:14:18.982Z,96495.80
2019-05-09T14:16:48.434Z,96482.91
2019-05-09T14:19:36.191Z,96486.80
2019-05-09T14:21:48.903Z,96485.53
2019-05-09T14:24:19.373Z,96478.53
2019-05-09T14:26:48.922Z,96475.86
2019-05-09T14:29:20.499Z,96465.61
2019-05-09T14:31:49.404Z,96474.23
2019-05-09T14:34:19.726Z,96473.85
2019-05-09T14:36:49.682Z,96480.75
2019-05-09T14:39:19.302Z,96478.46
2019-05-09T14:41:48.746Z,96474.93
2019-05-09T14:44:18.368Z,96472.35
2019-05-09T14:46:48.424Z,96463.69
2019-05-09T14:49:18.449Z,96462.73
2019-05-09T14:51:50.040Z,96461.55
2019-05-09T14:54:18.927Z,96461.55
2019-05-09T14:56:48.742Z,96468.19
2019-05-09T14:59:19.146Z,96473.44
2019-05-09T15:01:49.495Z,96473.94
2019-05-09T15:04:20.186Z,96474.55
2019-05-09T15:06:49.914Z,96473.11
2019-05-09T15:09:19.292Z,96467.33
2019-05-09T15:11:48.817Z,96461.03
2019-05-09T15:14:18.397Z,96470.67
2019-05-09T15:16:48.726Z,96473.44
2019-05-09T15:19:19.129Z,96467.23
2019-05-09T15:21:48.996Z,96462.21
2019-05-09T15:24:19.312Z,96456.87
2019-05-09T15:26:48.943Z,96445.02
2019-05-09T15:29:18.322Z,96450.74
2019-05-09T15:31:54.833Z,96448.81
2019-05-09T15:34:18.804Z,96457.22
2019-05-09T15:36:48.459Z,96448.22
2019-05-09T15:39:18.518Z,96454.43
2019-05-09T15:41:48.064Z,96452.66
2019-05-09T15:44:18.638Z,96449.02
2019-05-09T15:46:52.751Z,96444.48
2019-05-09T15:49:22.133Z,96447.88
2019-05-09T15:51:51.524Z,96440.52
2019-05-09T15:54:20.900Z,96448.66
2019-05-09T15:56:50.284Z,96442.90
2019-05-09T15:59:19.664Z,96442.27
2019-05-09T16:01:50.037Z,96438.43
2019-05-09T16:04:19.487Z,96442.48
2019-05-09T16:06:50.962Z,96443.61
2019-05-09T16:09:20.049Z,96441.81
2019-05-09T16:11:49.438Z,96446.38
2019-05-09T16:14:18.838Z,96446.99
2019-05-09T16:16:48.297Z,96444.70
2019-05-09T16:19:17.681Z,96445.48
2019-05-09T16:21:47.733Z,96442.97
2019-05-09T16:24:18.988Z,96441.76
2019-05-09T16:26:48.904Z,96445.80
2019-05-09T16:29:18.670Z,96445.80
2019-05-09T16:31:49.142Z,96439.61
2019-05-09T16:34:18.521Z,96446.73
2019-05-09T16:36:48.251Z,96445.43
2019-05-09T16:39:18.185Z,96445.44
2019-05-09T16:41:48.371Z,96442.84
2019-05-09T16:44:18.543Z,96449.80
2019-05-09T16:46:49.191Z,96439.63
2019-05-09T16:49:19.886Z,96452.13
2019-05-09T16:51:49.534Z,96451.86
2019-05-09T16:54:19.488Z,96458.24
2019-05-09T16:56:48.875Z,96466.09
2019-05-09T16:59:18.342Z,96469.61
2019-05-09T17:01:50.279Z,96470.92
2019-05-09T17:04:20.010Z,96479.39
2019-05-09T17:06:49.869Z,96488.05
2019-05-09T17:09:19.247Z,96486.69
2019-05-09T17:11:48.631Z,96489.27
2019-05-09T17:14:19.303Z,96498.47
2019-05-09T17:16:52.789Z,96503.39
2019-05-09T17:19:21.145Z,96509.72
2019-05-09T17:22:04.308Z,96508.17
2019-05-09T17:24:33.670Z,96502.56
2019-05-09T17:27:03.064Z,96507.96
2019-05-09T17:29:32.440Z,96511.62
2019-05-09T17:32:01.841Z,96512.14
2019-05-09T17:34:31.279Z,96513.50
2019-05-09T17:37:00.669Z,96511.64
2019-05-09T17:39:30.123Z,96515.17
2019-05-09T17:41:59.588Z,96522.26
2019-05-09T17:44:28.974Z,96521.48
2019-05-09T17:46:58.432Z,96518.30
2019-05-09T17:49:28.154Z,96519.41
2019-05-09T17:51:58.652Z,96521.60
2019-05-09T17:54:28.723Z,96520.67
2019-05-09T17:56:58.421Z,96523.16
2019-05-09T17:59:29.221Z,96509.38
2019-05-09T18:01:58.795Z,96510.03
2019-05-09T18:04:28.982Z,96504.98
2019-05-09T18:06:58.730Z,96501.25
2019-05-09T18:09:28.687Z,96502.44
2019-05-09T18:11:58.216Z,96510.27
2019-05-09T18:14:27.910Z,96509.84
2019-05-09T18:16:58.183Z,96512.65
2019-05-09T18:19:29.259Z,96508.41
2019-05-09T18:21:59.885Z,96501.48
2019-05-09T18:24:29.257Z,96510.31
2019-05-09T18:26:58.712Z,96518.54
2019-05-09T18:29:28.628Z,96529.27
2019-05-09T18:31:59.669Z,96529.52
2019-05-09T18:34:29.135Z,96538.84
2019-05-09T18:36:58.892Z,96536.88
2019-05-09T18:39:28.541Z,96551.55
2019-05-09T18:41:58.068Z,96560.19
2019-05-09T18:44:27.654Z,96563.08
2019-05-09T18:46:57.830Z,96558.70
2019-05-09T18:49:27.342Z,96562.14
2019-05-09T18:52:03.879Z,96558.45
2019-05-09T18:54:27.874Z,96561.05
2019-05-09T18:56:57.276Z,96560.66
2019-05-09T18:59:26.680Z,96577.44
2019-05-09T19:01:56.130Z,96581.97
2019-05-09T19:04:25.545Z,96591.75
2019-05-09T19:06:54.895Z,96600.66
2019-05-09T19:09:24.312Z,96602.89
2019-05-09T19:11:54.522Z,96596.47
2019-05-09T19:14:24.425Z,96595.51
2019-05-09T19:17:03.204Z,96592.52
2019-05-09T19:19:37.201Z,96592.80
2019-05-09T19:22:21.557Z,96601.83
2019-05-09T19:24:38.503Z,96601.19
2019-05-09T19:27:09.553Z,96599.81
2019-05-09T19:29:38.927Z,96602.58
2019-05-09T19:32:09.105Z,96608.29
2019-05-09T19:34:39.442Z,96612.58
2019-05-09T19:37:09.147Z,96619.01
2019-05-09T19:39:38.852Z,96625.40
2019-05-09T19:42:08.752Z,96623.25
2019-05-09T19:44:38.730Z,96641.22
2019-05-09T19:47:08.778Z,96650.19
2019-05-09T19:49:39.237Z,96662.80
2019-05-09T19:52:08.628Z,96657.05
2019-05-09T19:54:38.004Z,96654.91
2019-05-09T19:57:07.388Z,96656.77
2019-05-09T19:59:36.792Z,96654.56
2019-05-09T20:02:06.177Z,96654.92
2019-05-09T20:04:35.638Z,96659.97
2019-05-09T20:07:05.020Z,96654.45
2019-05-09T20:09:36.117Z,96658.78
2019-05-09T20:12:22.354Z,96658.28
2019-05-09T20:14:53.459Z,96654.59
2019-05-09T20:17:22.840Z,96652.22
2019-05-09T20:19:52.203Z,96652.90
2019-05-09T20:22:21.596Z,96649.19
2019-05-09T20:24:50.971Z,96648.27
2019-05-09T20:27:20.361Z,96659.60
2019-05-09T20:29:49.742Z,96654.87
2019-05-09T20:32:19.119Z,96657.75
2019-05-09T20:34:48.578Z,96663.96
2019-05-09T20:37:17.947Z,96657.64
2019-05-09T20:39:47.678Z,96656.80
2019-05-09T20:42:17.236Z,96644.56
2019-05-09T20:44:46.806Z,96654.90
2019-05-09T20:47:16.449Z,96657.63
2019-05-09T20:49:47.090Z,96657.89
2019-05-09T20:52:16.683Z,96655.21
2019-05-09T20:54:46.312Z,96668.94
2019-05-09T20:57:16.226Z,96676.22
2019-05-09T20:59:46.571Z,96677.02
2019-05-09T21:02:16.504Z,96681.16
2019-05-09T21:04:46.459Z,96673.34
2019-05-09T21:07:16.256Z,96674.95
2019-05-09T21:09:45.819Z,96675.83
2019-05-09T21:12:15.544Z,96687.15
2019-05-09T21:14:45.801Z,96686.08
2019-05-09T21:17:15.627Z,96683.75
2019-05-09T21:19:46.017Z,96687.78
2019-05-09T21:22:15.834Z,96687.64
2019-05-09T21:24:45.884Z,96689.05
2019-05-09T21:27:15.836Z,96689.70
2019-05-09T21:29:45.918Z,96684.10
2019-05-09T21:32:15.921Z,96698.72
2019-05-09T21:34:45.883Z,96704.63
2019-05-09T21:37:15.793Z,96707.91
2019-05-09T21:39:46.067Z,96709.44
2019-05-09T21:42:15.989Z,96710.42
2019-05-09T21:44:46.001Z,96706.83
2019-05-09T21:47:15.909Z,96710.48
2019-05-09T21:49:46.131Z,96704.11
2019-05-09T21:52:16.084Z,96704.55
2019-05-09T21:54:46.137Z,96709.63
2019-05-09T21:57:16.055Z,96715.14
2019-05-09T21:59:46.270Z,96715.80
2019-05-09T22:02:17.721Z,96705.69
2019-05-09T22:04:47.239Z,96705.69
2019-05-09T22:07:16.700Z,96722.97
2019-05-09T22:09:46.270Z,96724.02
2019-05-09T22:12:16.423Z,96708.31
2019-05-09T22:14:46.452Z,96720.22
2019-05-09T22:17:23.787Z,96721.05
2019-05-09T22:19:53.175Z,96724.98
2019-05-09T22:22:22.558Z,96719.45
2019-05-09T22:24:51.932Z,96726.83
2019-05-09T22:27:21.391Z,96735.55
2019-05-09T22:29:50.764Z,96745.54
2019-05-09T22:32:22.218Z,96747.70
2019-05-09T22:34:51.244Z,96749.09
2019-05-09T22:37:20.626Z,96750.83
2019-05-09T22:39:50.015Z,96747.85
2019-05-09T22:42:19.394Z,96741.61
2019-05-09T22:44:49.083Z,96746.44
2019-05-09T22:47:18.465Z,96748.09
2019-05-09T22:49:47.843Z,96742.81
2019-05-09T22:52:17.839Z,96746.58
2019-05-09T22:54:48.013Z,96742.17
2019-05-09T22:57:17.699Z,96750.69
2019-05-09T22:59:47.689Z,96753.23
2019-05-09T23:02:17.786Z,96756.06
2019-05-09T23:04:47.750Z,96761.05
2019-05-09T23:07:17.840Z,96759.69
2019-05-09T23:09:47.845Z,96764.56
2019-05-09T23:12:17.779Z,96771.36
2019-05-09T23:14:47.804Z,96760.48
2019-05-09T23:17:17.827Z,96769.00
2019-05-09T23:19:47.840Z,96762.11
2019-05-09T23:22:18.118Z,96758.23
2019-05-09T23:24:47.797Z,96766.50
2019-05-09T23:27:19.562Z,96760.64
2019-05-09T23:29:48.971Z,96762.33
2019-05-09T23:32:19.967Z,96764.52
2019-05-09T23:34:49.338Z,96759.91
2019-05-09T23:37:18.728Z,96765.29
2019-05-09T23:39:49.752Z,96763.44
2019-05-09T23:42:19.127Z,96771.42
2019-05-09T23:44:48.516Z,96768.19
2019-05-09T23:47:17.905Z,96775.73
2019-05-09T23:49:48.047Z,96768.82
2019-05-09T23:52:17.435Z,96771.10
2019-05-09T23:55:05.167Z,96761.14
2019-05-09T23:57:52.096Z,96770.05
